createdAt,value
2023-09-25T00:00:00.441Z,79.17
2023-09-25T00:03:04.997Z,77.90
2023-09-25T00:06:08.988Z,78.33
2023-09-25T00:09:13.434Z,77.37
2023-09-25T00:12:16.421Z,77.09
2023-09-25T00:15:19.605Z,78.04
2023-09-25T00:18:22.541Z,78.37
2023-09-25T00:21:25.606Z,79.78
2023-09-25T00:24:29.847Z,78.73
2023-09-25T00:27:33.059Z,79.14
2023-09-25T00:30:36.256Z,79.66
2023-09-25T00:33:39.090Z,79.35
2023-09-25T00:36:41.997Z,79.34
2023-09-25T00:39:47.590Z,76.92
2023-09-25T00:42:51.905Z,78.02
2023-09-25T00:45:55.674Z,78.50
2023-09-25T00:48:58.907Z,78.88
2023-09-25T00:52:02.104Z,78.12
2023-09-25T00:55:07.548Z,79.24
2023-09-25T00:58:11.986Z,79.27
2023-09-25T01:01:15.159Z,78.80
2023-09-25T01:04:18.621Z,78.68
2023-09-25T01:07:21.645Z,78.57
2023-09-25T01:10:25.962Z,79.62
2023-09-25T01:13:29.707Z,80.25
2023-09-25T01:16:32.870Z,78.93
2023-09-25T01:19:35.994Z,79.22
2023-09-25T01:22:40.048Z,78.42
2023-09-25T01:25:42.789Z,77.83
2023-09-25T01:28:45.572Z,78.50
2023-09-25T01:31:48.494Z,79.65
2023-09-25T01:34:53.570Z,80.58
2023-09-25T01:37:59.619Z,82.46
2023-09-25T01:41:02.475Z,81.49
2023-09-25T01:44:05.919Z,80.13
2023-09-25T01:47:08.728Z,81.13
2023-09-25T01:50:12.907Z,80.59
2023-09-25T01:53:17.161Z,79.34
2023-09-25T01:56:19.920Z,79.83
2023-09-25T01:59:22.769Z,77.99
2023-09-25T02:02:25.605Z,76.80
2023-09-25T02:05:28.589Z,75.88
2023-09-25T02:08:32.898Z,78.88
2023-09-25T02:11:35.626Z,78.16
2023-09-25T02:14:38.456Z,77.64
2023-09-25T02:17:41.262Z,79.16
2023-09-25T02:20:46.581Z,78.09
2023-09-25T02:23:50.834Z,78.28
2023-09-25T02:26:53.578Z,78.69
2023-09-25T02:29:56.342Z,78.12
2023-09-25T02:33:01.786Z,79.26
2023-09-25T02:36:06.051Z,80.18
2023-09-25T02:39:11.188Z,80.41
2023-09-25T02:42:14.045Z,80.80
2023-09-25T02:45:17.554Z,81.79
2023-09-25T02:48:20.476Z,81.94
2023-09-25T02:51:23.409Z,81.51
2023-09-25T02:54:27.548Z,82.41
2023-09-25T02:57:30.435Z,82.13
2023-09-25T03:00:33.292Z,80.11
2023-09-25T03:03:36.127Z,78.64
2023-09-25T03:06:38.891Z,78.34
2023-09-25T03:09:43.372Z,79.17
2023-09-25T03:12:46.123Z,79.89
2023-09-25T03:15:49.131Z,80.65
2023-09-25T03:18:52.331Z,81.14
2023-09-25T03:21:55.230Z,80.42
2023-09-25T03:24:59.284Z,80.91
2023-09-25T03:28:02.051Z,81.09
2023-09-25T03:31:04.836Z,80.90
2023-09-25T03:34:07.756Z,80.80
2023-09-25T03:37:10.771Z,81.36
2023-09-25T03:40:15.183Z,80.60
2023-09-25T03:43:17.834Z,79.84
2023-09-25T03:46:20.785Z,78.96
2023-09-25T03:49:23.513Z,81.02
2023-09-25T03:52:26.177Z,81.03
2023-09-25T03:55:30.529Z,81.25
2023-09-25T03:58:33.298Z,80.52
2023-09-25T04:01:36.063Z,79.50
2023-09-25T04:04:39.020Z,78.99
2023-09-25T04:07:41.945Z,79.50
2023-09-25T04:10:45.978Z,80.53
2023-09-25T04:13:49.213Z,79.71
2023-09-25T04:16:51.984Z,79.68
2023-09-25T04:19:54.868Z,80.10
2023-09-25T04:22:58.321Z,78.92
2023-09-25T04:26:02.787Z,78.30
2023-09-25T04:29:05.804Z,78.55
2023-09-25T04:32:08.626Z,80.28
2023-09-25T04:35:13.467Z,79.48
2023-09-25T04:38:16.281Z,79.85
2023-09-25T04:41:20.672Z,80.62
2023-09-25T04:44:23.355Z,80.35
2023-09-25T04:47:26.500Z,80.44
2023-09-25T04:50:29.664Z,80.38
2023-09-25T04:53:32.589Z,79.18
2023-09-25T04:56:37.783Z,79.76
2023-09-25T04:59:40.556Z,80.81
2023-09-25T05:02:46.993Z,81.02
2023-09-25T05:05:50.490Z,80.87
2023-09-25T05:08:53.388Z,81.51
2023-09-25T05:11:58.009Z,81.66
2023-09-25T05:15:00.883Z,80.39
2023-09-25T05:18:04.150Z,81.25
2023-09-25T05:21:06.911Z,79.94
2023-09-25T05:24:09.968Z,80.69
2023-09-25T05:27:14.180Z,80.45
2023-09-25T05:30:18.631Z,80.29
2023-09-25T05:33:21.853Z,81.44
2023-09-25T05:36:24.668Z,82.05
2023-09-25T05:39:27.465Z,81.38
2023-09-25T05:42:31.808Z,81.74
2023-09-25T05:45:34.685Z,81.87
2023-09-25T05:48:38.172Z,81.72
2023-09-25T05:51:40.998Z,82.45
2023-09-25T05:54:44.099Z,82.55
2023-09-25T05:57:48.295Z,82.51
2023-09-25T06:00:51.148Z,83.23
2023-09-25T06:03:55.275Z,83.54
2023-09-25T06:06:58.184Z,83.01
2023-09-25T06:10:02.493Z,82.96
2023-09-25T06:13:07.248Z,82.72
2023-09-25T06:16:10.810Z,83.39
2023-09-25T06:19:14.117Z,82.88
2023-09-25T06:22:16.823Z,82.13
2023-09-25T06:25:20.156Z,81.26
2023-09-25T06:28:25.437Z,80.28
2023-09-25T06:31:29.000Z,79.63
2023-09-25T06:34:32.377Z,79.75
2023-09-25T06:37:37.940Z,80.40
2023-09-25T06:40:45.872Z,80.68
2023-09-25T06:43:49.907Z,80.10
2023-09-25T06:46:53.217Z,80.11
2023-09-25T06:49:57.081Z,79.24
2023-09-25T06:53:00.058Z,78.15
2023-09-25T06:56:02.896Z,75.50
2023-09-25T06:59:07.084Z,69.33
2023-09-25T07:02:10.284Z,63.37
2023-09-25T07:05:13.437Z,56.09
2023-09-25T07:08:16.340Z,50.62
2023-09-25T07:11:20.304Z,51.21
2023-09-25T07:14:25.391Z,50.80
2023-09-25T07:17:29.194Z,52.86
2023-09-25T07:20:32.073Z,55.88
2023-09-25T07:23:34.824Z,59.78
2023-09-25T07:26:37.564Z,61.34
2023-09-25T07:29:43.964Z,63.62
2023-09-25T07:32:46.828Z,65.56
2023-09-25T07:35:49.646Z,67.08
2023-09-25T07:38:53.200Z,67.39
2023-09-25T07:41:56.312Z,68.24
2023-09-25T07:45:00.512Z,69.34
2023-09-25T07:48:04.240Z,68.92
2023-09-25T07:51:08.256Z,69.31
2023-09-25T07:54:11.502Z,69.02
2023-09-25T07:57:15.899Z,68.75
2023-09-25T08:00:24.385Z,68.70
2023-09-25T08:03:27.310Z,68.63
2023-09-25T08:06:30.003Z,69.18
2023-09-25T08:09:32.842Z,67.43
2023-09-25T08:12:35.595Z,67.61
2023-09-25T08:15:39.760Z,68.77
2023-09-25T08:18:42.571Z,67.21
2023-09-25T08:21:45.534Z,67.77
2023-09-25T08:24:48.460Z,67.13
2023-09-25T08:27:52.654Z,66.38
2023-09-25T08:30:57.500Z,66.94
2023-09-25T08:34:00.308Z,66.36
2023-09-25T08:37:03.261Z,67.36
2023-09-25T08:40:08.095Z,66.27
2023-09-25T08:43:20.326Z,63.14
2023-09-25T08:46:27.280Z,62.91
2023-09-25T08:49:32.581Z,62.89
2023-09-25T08:52:35.696Z,61.20
2023-09-25T08:55:39.198Z,59.63
2023-09-25T08:58:44.263Z,58.53
2023-09-25T09:01:48.670Z,58.32
2023-09-25T09:04:52.292Z,57.24
2023-09-25T09:07:59.271Z,54.82
2023-09-25T09:11:11.105Z,55.43
2023-09-25T09:14:14.187Z,55.87
2023-09-25T09:17:18.308Z,56.88
2023-09-25T09:20:21.593Z,51.99
2023-09-25T09:23:40.798Z,53.00
2023-09-25T09:26:43.906Z,52.88
2023-09-25T09:29:46.769Z,51.19
2023-09-25T09:32:52.110Z,49.20
2023-09-25T09:35:54.894Z,49.60
2023-09-25T09:38:59.148Z,47.16
2023-09-25T09:42:05.008Z,46.46
2023-09-25T09:45:09.833Z,46.13
2023-09-25T09:48:18.083Z,45.53
2023-09-25T09:51:21.015Z,45.27
2023-09-25T09:54:24.653Z,45.77
2023-09-25T09:57:28.460Z,45.42
2023-09-25T10:00:31.948Z,43.77
2023-09-25T10:03:37.006Z,43.29
2023-09-25T10:06:48.833Z,44.38
2023-09-25T10:09:59.560Z,43.83
2023-09-25T10:13:02.813Z,42.17
2023-09-25T10:16:05.847Z,42.98
2023-09-25T10:19:21.003Z,43.59
2023-09-25T10:22:30.618Z,43.91
2023-09-25T10:25:34.866Z,42.22
2023-09-25T10:28:40.076Z,42.16
2023-09-25T10:31:48.206Z,40.88
2023-09-25T10:34:52.486Z,41.79
2023-09-25T10:38:30.242Z,42.77
2023-09-25T10:41:34.254Z,43.26
2023-09-25T10:44:37.910Z,43.25
2023-09-25T10:47:40.911Z,43.64
2023-09-25T10:50:47.096Z,42.35
2023-09-25T10:53:50.061Z,41.93
2023-09-25T10:56:54.807Z,42.87
2023-09-25T10:59:57.886Z,42.74
2023-09-25T11:03:00.893Z,42.67
2023-09-25T11:06:05.584Z,42.51
2023-09-25T11:09:09.119Z,41.92
2023-09-25T11:12:12.106Z,43.88
2023-09-25T11:15:15.839Z,43.77
2023-09-25T11:18:20.842Z,43.39
2023-09-25T11:21:25.256Z,40.42
2023-09-25T11:24:28.471Z,41.21
2023-09-25T11:27:31.814Z,41.92
2023-09-25T11:30:35.204Z,41.93
2023-09-25T11:33:38.214Z,41.01
2023-09-25T11:36:46.910Z,41.32
2023-09-25T11:39:50.060Z,40.15
2023-09-25T11:42:53.725Z,40.84
2023-09-25T11:45:56.775Z,39.88
2023-09-25T11:48:59.945Z,40.98
2023-09-25T11:52:04.479Z,39.80
2023-09-25T11:55:08.922Z,38.79
2023-09-25T11:58:11.746Z,39.88
2023-09-25T12:01:14.502Z,37.99
2023-09-25T12:04:17.486Z,39.33
2023-09-25T12:07:22.594Z,40.28
2023-09-25T12:10:25.564Z,39.06
2023-09-25T12:13:28.487Z,38.34
2023-09-25T12:16:31.496Z,40.00
2023-09-25T12:19:34.278Z,40.06
2023-09-25T12:22:38.672Z,40.12
2023-09-25T12:25:41.554Z,38.98
2023-09-25T12:28:44.685Z,38.37
2023-09-25T12:31:48.651Z,37.08
2023-09-25T12:34:52.055Z,37.46
2023-09-25T12:37:57.489Z,38.48
2023-09-25T12:41:00.793Z,39.03
2023-09-25T12:44:03.787Z,38.87
2023-09-25T12:47:06.631Z,39.25
2023-09-25T12:50:10.254Z,37.28
2023-09-25T12:53:14.445Z,37.37
2023-09-25T12:56:17.328Z,37.90
2023-09-25T12:59:20.204Z,36.29
2023-09-25T13:02:23.105Z,36.04
2023-09-25T13:05:26.110Z,36.54
2023-09-25T13:08:30.902Z,38.09
2023-09-25T13:11:37.381Z,35.92
2023-09-25T13:14:40.175Z,38.07
2023-09-25T13:17:43.229Z,38.34
2023-09-25T13:20:46.125Z,37.75
2023-09-25T13:23:50.416Z,38.07
2023-09-25T13:26:53.298Z,38.07
2023-09-25T13:29:56.209Z,39.47
2023-09-25T13:32:59.425Z,39.20
2023-09-25T13:36:02.337Z,40.45
2023-09-25T13:39:06.806Z,40.91
2023-09-25T13:42:12.684Z,41.59
2023-09-25T13:45:16.148Z,42.04
2023-09-25T13:48:19.252Z,41.33
2023-09-25T13:51:22.034Z,41.16
2023-09-25T13:54:26.406Z,42.36
2023-09-25T13:57:29.285Z,42.50
2023-09-25T14:00:33.458Z,41.98
2023-09-25T14:03:36.488Z,42.75
2023-09-25T14:06:39.946Z,41.41
2023-09-25T14:09:45.087Z,43.00
2023-09-25T14:12:48.150Z,43.83
2023-09-25T14:15:51.189Z,43.35
2023-09-25T14:18:54.364Z,44.11
2023-09-25T14:21:57.175Z,43.06
2023-09-25T14:25:02.351Z,43.27
2023-09-25T14:28:06.057Z,42.85
2023-09-25T14:31:09.049Z,42.09
2023-09-25T14:34:11.907Z,42.64
2023-09-25T14:37:14.777Z,43.00
2023-09-25T14:40:18.948Z,41.92
2023-09-25T14:43:21.702Z,42.05
2023-09-25T14:46:24.605Z,41.26
2023-09-25T14:49:27.641Z,41.57
2023-09-25T14:52:32.239Z,43.28
2023-09-25T14:55:53.616Z,43.06
2023-09-25T14:58:59.343Z,42.02
2023-09-25T15:02:02.128Z,41.97
2023-09-25T15:05:05.521Z,42.56
2023-09-25T15:08:08.394Z,41.67
2023-09-25T15:11:13.342Z,43.39
2023-09-25T15:14:16.139Z,42.90
2023-09-25T15:17:19.240Z,42.56
2023-09-25T15:20:22.106Z,41.86
2023-09-25T15:23:24.923Z,43.24
2023-09-25T15:26:29.441Z,43.65
2023-09-25T15:29:32.173Z,43.98
2023-09-25T15:32:36.218Z,43.58
2023-09-25T15:35:39.586Z,44.00
2023-09-25T15:38:42.648Z,43.99
2023-09-25T15:41:47.049Z,44.48
2023-09-25T15:44:49.967Z,45.33
2023-09-25T15:47:52.687Z,46.51
2023-09-25T15:50:55.508Z,45.66
2023-09-25T15:53:59.358Z,45.84
2023-09-25T15:57:03.493Z,45.12
2023-09-25T16:00:07.777Z,45.18
2023-09-25T16:03:10.991Z,46.01
2023-09-25T16:06:14.288Z,45.69
2023-09-25T16:09:17.181Z,45.48
2023-09-25T16:12:21.425Z,45.30
2023-09-25T16:15:24.376Z,46.17
2023-09-25T16:18:27.189Z,46.03
2023-09-25T16:21:30.002Z,46.64
2023-09-25T16:24:32.891Z,46.48
2023-09-25T16:27:37.212Z,47.03
2023-09-25T16:30:40.480Z,47.17
2023-09-25T16:33:43.554Z,49.44
2023-09-25T16:36:46.420Z,50.45
2023-09-25T16:39:49.226Z,50.48
2023-09-25T16:42:53.535Z,51.22
2023-09-25T16:45:56.563Z,51.56
2023-09-25T16:48:59.453Z,52.47
2023-09-25T16:52:02.356Z,53.12
2023-09-25T16:55:06.059Z,54.06
2023-09-25T16:58:10.244Z,55.42
2023-09-25T17:01:13.406Z,56.67
2023-09-25T17:04:16.337Z,57.29
2023-09-25T17:07:19.197Z,58.47
2023-09-25T17:10:22.063Z,59.35
2023-09-25T17:13:28.394Z,60.22
2023-09-25T17:16:33.588Z,60.06
2023-09-25T17:19:36.554Z,60.49
2023-09-25T17:22:39.388Z,61.84
2023-09-25T17:25:42.193Z,62.20
2023-09-25T17:28:46.413Z,62.96
2023-09-25T17:31:49.731Z,63.11
2023-09-25T17:34:53.216Z,64.56
2023-09-25T17:37:56.229Z,64.99
2023-09-25T17:40:59.039Z,64.86
2023-09-25T17:44:03.432Z,65.31
2023-09-25T17:47:06.990Z,65.81
2023-09-25T17:50:10.838Z,66.44
2023-09-25T17:53:13.780Z,66.36
2023-09-25T17:56:16.908Z,66.37
2023-09-25T17:59:21.656Z,66.68
2023-09-25T18:02:24.502Z,67.20
2023-09-25T18:05:29.953Z,67.40
2023-09-25T18:08:33.348Z,68.33
2023-09-25T18:11:36.313Z,68.34
2023-09-25T18:14:40.717Z,68.65
2023-09-25T18:17:43.673Z,69.18
2023-09-25T18:20:46.729Z,69.35
2023-09-25T18:23:49.772Z,69.68
2023-09-25T18:26:53.322Z,70.45
2023-09-25T18:29:57.501Z,70.40
2023-09-25T18:33:02.160Z,71.42
2023-09-25T18:36:05.489Z,71.33
2023-09-25T18:39:08.489Z,72.02
2023-09-25T18:42:11.324Z,72.30
2023-09-25T18:45:15.612Z,72.64
2023-09-25T18:48:18.853Z,72.57
2023-09-25T18:51:23.689Z,73.21
2023-09-25T18:54:26.655Z,73.04
2023-09-25T18:57:29.489Z,73.77
2023-09-25T19:00:33.930Z,74.04
2023-09-25T19:03:36.841Z,73.91
2023-09-25T19:06:39.792Z,75.03
2023-09-25T19:09:42.720Z,75.71
2023-09-25T19:12:45.705Z,76.09
2023-09-25T19:15:50.809Z,75.99
2023-09-25T19:18:58.075Z,76.46
2023-09-25T19:22:01.425Z,77.48
2023-09-25T19:25:04.298Z,77.07
2023-09-25T19:28:09.845Z,77.66
2023-09-25T19:31:36.805Z,77.86
2023-09-25T19:34:36.935Z,77.08
2023-09-25T19:37:39.841Z,77.87
2023-09-25T19:40:42.951Z,78.41
2023-09-25T19:43:49.217Z,78.75
2023-09-25T19:46:53.673Z,78.78
2023-09-25T19:49:56.644Z,79.56
2023-09-25T19:52:59.665Z,79.60
2023-09-25T19:56:02.620Z,80.05
2023-09-25T19:59:05.655Z,79.82
2023-09-25T20:02:10.059Z,79.98
2023-09-25T20:05:13.160Z,80.11
2023-09-25T20:08:19.761Z,80.78
2023-09-25T20:11:23.202Z,80.93
2023-09-25T20:14:25.985Z,80.56
2023-09-25T20:17:30.078Z,81.28
2023-09-25T20:20:32.913Z,81.64
2023-09-25T20:23:35.862Z,81.02
2023-09-25T20:26:40.717Z,81.65
2023-09-25T20:29:43.836Z,81.22
2023-09-25T20:32:47.931Z,81.53
2023-09-25T20:35:50.657Z,81.50
2023-09-25T20:38:53.454Z,81.79
2023-09-25T20:41:56.326Z,81.55
2023-09-25T20:44:59.146Z,81.57
2023-09-25T20:48:03.634Z,81.17
2023-09-25T20:51:06.552Z,80.94
2023-09-25T20:54:09.397Z,80.98
2023-09-25T20:57:12.834Z,81.25
2023-09-25T21:00:16.797Z,81.80
2023-09-25T21:03:21.132Z,81.48
2023-09-25T21:06:24.004Z,81.56
2023-09-25T21:09:26.868Z,80.12
2023-09-25T21:12:29.749Z,81.22
2023-09-25T21:15:32.555Z,81.86
2023-09-25T21:18:36.816Z,82.48
2023-09-25T21:21:39.699Z,81.66
2023-09-25T21:24:42.656Z,82.05
2023-09-25T21:27:45.525Z,82.07
2023-09-25T21:30:48.540Z,81.63
2023-09-25T21:33:53.729Z,81.87
2023-09-25T21:36:56.871Z,83.43
2023-09-25T21:40:01.014Z,81.14
2023-09-25T21:43:03.892Z,82.69
2023-09-25T21:46:06.855Z,83.59
2023-09-25T21:49:11.240Z,82.99
2023-09-25T21:52:14.092Z,83.04
2023-09-25T21:55:17.015Z,81.89
2023-09-25T21:58:19.920Z,81.19
2023-09-25T22:01:22.829Z,82.02
2023-09-25T22:04:27.293Z,82.82
2023-09-25T22:07:31.405Z,82.77
2023-09-25T22:10:34.543Z,83.57
2023-09-25T22:13:37.840Z,82.87
2023-09-25T22:16:42.878Z,83.04
2023-09-25T22:19:47.052Z,82.25
2023-09-25T22:22:49.998Z,83.21
2023-09-25T22:25:52.871Z,82.88
2023-09-25T22:28:55.639Z,83.03
2023-09-25T22:31:58.503Z,82.62
2023-09-25T22:35:03.543Z,83.02
2023-09-25T22:38:07.894Z,83.76
2023-09-25T22:41:10.725Z,83.48
2023-09-25T22:44:13.558Z,83.75
2023-09-25T22:47:16.412Z,83.59
2023-09-25T22:50:20.632Z,84.21
2023-09-25T22:53:23.572Z,83.10
2023-09-25T22:56:26.334Z,83.43
2023-09-25T22:59:29.122Z,83.57
2023-09-25T23:02:32.041Z,83.89
2023-09-25T23:05:36.316Z,83.61
2023-09-25T23:08:39.082Z,84.39
2023-09-25T23:11:41.812Z,85.06
2023-09-25T23:14:44.735Z,84.20
2023-09-25T23:17:47.522Z,84.09
2023-09-25T23:20:53.423Z,84.02
2023-09-25T23:23:56.300Z,84.08
2023-09-25T23:26:59.084Z,84.00
2023-09-25T23:30:01.972Z,83.27
2023-09-25T23:33:07.343Z,84.57
2023-09-25T23:36:11.600Z,84.85
2023-09-25T23:39:15.967Z,84.57
2023-09-25T23:42:19.343Z,83.68
2023-09-25T23:45:23.538Z,84.04
2023-09-25T23:48:26.925Z,84.01
2023-09-25T23:51:30.991Z,83.83
2023-09-25T23:54:33.789Z,84.72
2023-09-25T23:57:39.514Z,84.20
